Flight Track Log - Related Links

Times and Time Zones

All times are in EDT time to prevent confusion due to time zone crossing. See the DAL2128 flight status page for this flight to view local times or setup timezone preferences in your user account.

Time Position Orientation Groundspeed Altitude Reporting Facility
EDT Latitude Longitude Course Direction KTS MPH feet Rate Location/Type
Sun 02:01:11 PM 28.4000 -81.3000 North 164 189 900  Level Orlando TRACON
Sun 02:02:05 PM 28.3667 -81.3167 204° Southwest 233 268 2,600 2,579 Climbing Orlando TRACON
Sun 02:03:05 PM 28.3167 -81.3667 221° Southwest 232 267 5,800 2,950 Climbing Orlando TRACON
Sun 02:04:00 PM 28.8882 -81.3610 350° North  Level FlightAware Approximate
Sun 02:04:05 PM 28.3333 -81.4333 286° West 265 305 8,500  Level Orlando TRACON
Sun 02:05:00 PM 29.0082 -81.3683 350° North  Level FlightAware Approximate
Sun 02:05:06 PM 28.4167 -81.4333 360° North 314 361 10,900  Level Orlando TRACON
Sun 02:06:00 PM 29.1276 -81.3833 North  Level FlightAware Approximate
Sun 02:06:41 PM 28.5742 -81.4767 346° North 368 423 12,800  Level Jacksonville Center
Sun 02:07:41 PM 28.6831 -81.5058 347° North 389 448 15,000 2,100 Climbing Jacksonville Center
Sun 02:08:41 PM 28.7981 -81.5350 347° North 400 460 17,000 1,950 Climbing Jacksonville Center
Sun 02:09:41 PM 28.9172 -81.5594 350° North 412 474 18,900 1,800 Climbing Jacksonville Center
Sun 02:10:41 PM 29.0367 -81.5936 346° North 425 489 20,600 1,600 Climbing Jacksonville Center
Sun 02:11:41 PM 29.1622 -81.6250 348° North 432 497 22,100 1,450 Climbing Jacksonville Center
Sun 02:12:41 PM 29.2731 -81.6547 347° North 443 510 23,500 1,300 Climbing Jacksonville Center
Sun 02:13:41 PM 29.3986 -81.6889 347° North 455 524 24,700 1,400 Climbing Jacksonville Center
Sun 02:14:41 PM 29.5261 -81.7183 349° North 460 529 26,300 1,550 Climbing Jacksonville Center
Sun 02:15:41 PM 29.6558 -81.7406 352° North 465 535 27,800 1,450 Climbing Jacksonville Center
Sun 02:16:41 PM 29.7811 -81.7536 355° North 465 535 29,200 1,350 Climbing Jacksonville Center
Sun 02:17:41 PM 29.9067 -81.7642 356° North 465 535 30,500 850 Climbing Jacksonville Center
Sun 02:18:41 PM 30.0467 -81.7767 356° North 465 535 30,900 250 Climbing Jacksonville Center
Sun 02:19:41 PM 30.1742 -81.7922 354° North 460 529 31,000 50 Climbing Jacksonville Center
Sun 02:20:41 PM 30.2869 -81.8028 355° North 465 535 31,000  Level Jacksonville Center
Sun 02:21:41 PM 30.4144 -81.8158 355° North 460 529 31,000  Level Jacksonville Center
Sun 02:22:41 PM 30.5397 -81.8289 355° North 460 529 31,000  Level Jacksonville Center
Sun 02:23:41 PM 30.6694 -81.8467 353° North 466 536 31,000  Level Jacksonville Center
Sun 02:24:41 PM 30.7969 -81.8600 355° North 461 531 31,000  Level Jacksonville Center
Sun 02:25:41 PM 30.9389 -81.8753 355° North 466 536 31,000  Level Jacksonville Center
Sun 02:26:41 PM 31.0644 -81.8886 355° North 456 525 31,000 -50 Level Jacksonville Center
Sun 02:27:41 PM 31.1939 -81.9017 355° North 455 524 30,900  Descending Jacksonville Center
Sun 02:28:41 PM 31.3192 -81.9150 355° North 448 516 31,000 50 Climbing Jacksonville Center
Sun 02:29:41 PM 31.4300 -81.9236 356° North 443 510 31,000  Level Jacksonville Center
Sun 02:30:41 PM 31.5700 -81.9392 355° North 443 510 31,000  Level Jacksonville Center
Sun 02:31:41 PM 31.6850 -81.9503 355° North 448 516 31,000  Level Jacksonville Center
Sun 02:32:41 PM 31.8083 -81.9636 355° North 448 516 31,000  Level Jacksonville Center
Sun 02:33:41 PM 31.9461 -81.9769 355° North 448 516 31,000  Level Jacksonville Center
Sun 02:35:45 PM 32.2119 -82.0039 355° North 476 548 31,000  Level Atlanta Center
Sun 02:36:45 PM 32.3311 -82.0183 354° North 456 525 31,000  Level Atlanta Center
Sun 02:37:45 PM 32.4586 -82.0278 356° North 456 525 31,000  Level Atlanta Center
Sun 02:38:45 PM 32.5842 -82.0419 355° North 456 525 31,000  Level Atlanta Center
Sun 02:39:45 PM 32.7117 -82.0564 355° North 456 525 31,000  Level Atlanta Center
Sun 02:40:45 PM 32.8372 -82.0733 354° North 456 525 31,000  Level Atlanta Center
Sun 02:41:45 PM 32.9647 -82.0853 356° North 461 531 31,000  Level Atlanta Center
Sun 02:42:45 PM 33.0942 -82.0972 356° North 461 531 31,000  Level Atlanta Center
Sun 02:43:45 PM 33.2219 -82.1119 354° North 461 531 31,000  Level Atlanta Center
Sun 02:44:45 PM 33.3514 -82.1239 356° North 461 531 31,000  Level Atlanta Center
Sun 02:45:45 PM 33.4789 -82.1386 354° North 461 531 31,000  Level Atlanta Center
Sun 02:46:45 PM 33.6064 -82.1481 356° North 461 531 31,000  Level Atlanta Center
Sun 02:47:45 PM 33.7214 -82.1531 358° North 461 531 31,000  Level Atlanta Center
Sun 02:48:45 PM 33.8483 -82.1328 North 461 531 31,000  Level Atlanta Center
Sun 02:49:45 PM 33.9733 -82.1125 North 456 525 31,000  Level Atlanta Center
Sun 02:50:45 PM 34.0981 -82.0897 North 456 525 31,000  Level Atlanta Center
Sun 02:51:45 PM 34.2208 -82.0717 North 456 525 31,000  Level Atlanta Center
Sun 02:52:45 PM 34.3478 -82.0486 North 450 518 31,000  Level Atlanta Center
Sun 02:53:45 PM 34.4728 -82.0256 North 450 518 31,000  Level Atlanta Center
Sun 02:54:45 PM 34.5975 -82.0050 North 450 518 31,000  Level Atlanta Center
Sun 02:55:45 PM 34.7225 -81.9842 North 450 518 31,000  Level Atlanta Center
Sun 02:56:45 PM 34.8472 -81.9608 North 445 512 31,000  Level Atlanta Center
Sun 02:57:45 PM 34.9783 -81.9425 North 452 520 31,000  Level Atlanta Center
Sun 02:58:45 PM 35.1158 -81.9314 North 457 526 31,000  Level Atlanta Center
Sun 02:59:45 PM 35.2475 -81.9356 359° North 462 532 31,000  Level Atlanta Center
Sun 03:00:45 PM 35.3747 -81.9400 358° North 456 525 31,000  Level Atlanta Center
Sun 03:01:45 PM 35.5000 -81.9444 358° North 456 525 31,000  Level Atlanta Center
Sun 03:02:45 PM 35.6247 -81.9156 11° North 461 531 31,000  Level Atlanta Center
Sun 03:03:45 PM 35.7428 -81.8564 22° Northeast 450 518 31,000  Level Atlanta Center
Sun 03:04:45 PM 35.8669 -81.8017 20° North 463 533 31,000  Level Atlanta Center
Sun 03:05:45 PM 35.9814 -81.7961 North 475 547 31,000  Level Atlanta Center
Sun 03:06:45 PM 36.1053 -81.8336 346° North 464 534 31,000  Level Atlanta Center
Sun 03:07:45 PM 36.2269 -81.8844 341° North 469 540 31,000  Level Atlanta Center
Sun 03:08:45 PM 36.3425 -81.9328 341° North 452 520 31,000  Level Atlanta Center
Sun 03:09:45 PM 36.4644 -81.9814 342° North 452 520 31,000  Level Atlanta Center
Sun 03:11:54 PM 36.7397 -81.9906 358° North 460 529 31,000  Level Indianapolis Center
Sun 03:12:55 PM 36.8714 -81.9908 360° North 469 540 31,000  Level Indianapolis Center
Sun 03:13:57 PM 36.9986 -81.9936 359° North 461 531 31,000  Level Indianapolis Center
Sun 03:14:58 PM 37.1492 -81.9964 359° North 464 534 31,000  Level Indianapolis Center
Sun 03:16:00 PM 37.2775 -81.9992 359° North 463 533 31,000  Level Indianapolis Center
Sun 03:17:01 PM 37.4067 -82.0022 359° North 465 535 31,000  Level Indianapolis Center
Sun 03:18:02 PM 37.5331 -82.0033 360° North 458 527 31,000  Level Indianapolis Center
Sun 03:19:04 PM 37.6614 -82.0058 359° North 460 529 31,000  Level Indianapolis Center
Sun 03:20:05 PM 37.7897 -82.0078 359° North 461 531 31,000  Level Indianapolis Center
Sun 03:21:06 PM 37.9133 -82.0097 359° North 459 528 31,000  Level Indianapolis Center
Sun 03:22:08 PM 38.0417 -82.0119 359° North 461 531 31,000  Level Indianapolis Center
Sun 03:23:09 PM 38.1717 -82.0136 359° North 463 533 31,000  Level Indianapolis Center
Sun 03:24:10 PM 38.3294 -82.0158 359° North 468 539 31,000  Level Indianapolis Center
Sun 03:25:12 PM 38.4608 -82.0183 359° North 468 539 31,000  Level Indianapolis Center
Sun 03:26:13 PM 38.5917 -82.0214 359° North 468 539 31,000  Level Indianapolis Center
Sun 03:27:14 PM 38.7236 -82.0214 360° North 468 539 31,000  Level Indianapolis Center
Sun 03:28:16 PM 38.8533 -82.0364 355° North 463 533 31,000  Level Indianapolis Center
Sun 03:29:17 PM 38.9814 -82.0572 353° North 462 532 31,000  Level Indianapolis Center
Sun 03:30:18 PM 39.1106 -82.0656 357° North 462 532 31,000  Level Indianapolis Center
Sun 03:31:20 PM 39.2406 -82.0717 358° North 464 534 31,000 -49 Level Indianapolis Center
Sun 03:32:21 PM 39.3683 -82.0767 358° North 460 529 30,900 -393 Descending Indianapolis Center
Sun 03:33:22 PM 39.4961 -82.0825 358° North 460 529 30,200 -683 Descending Indianapolis Center
Sun 03:34:24 PM 39.6244 -82.0883 358° North 460 529 29,500 -585 Descending Indianapolis Center
Sun 03:35:25 PM 39.7522 -82.0944 358° North 459 528 29,000 -246 Descending Indianapolis Center
Sun 03:36:26 PM 39.8792 -82.0986 359° North 457 526 29,000  Level Indianapolis Center
Sun 03:37:27 PM 40.0325 -82.1056 358° North 460 529 29,000  Level Indianapolis Center
Sun 03:38:29 PM 40.1589 -82.1108 358° North 456 525 29,000  Level Indianapolis Center
Sun 03:39:30 PM 40.2897 -82.1156 358° North 457 526 29,000  Level Indianapolis Center
Sun 03:40:31 PM 40.4158 -82.1411 351° North 453 521 29,000  Level Indianapolis Center
Sun 03:41:32 PM 40.5392 -82.1772 347° North 449 517 29,000  Level Indianapolis Center
Sun 03:42:34 PM 40.6558 -82.2383 338° Northwest 445 512 29,000 -146 Level Indianapolis Center
Sun 03:43:35 PM 40.7778 -82.2992 339° North 460 529 28,700 -541 Descending Indianapolis Center
Sun 03:44:36 PM 40.8992 -82.3600 339° North 461 531 27,900 -836 Descending Indianapolis Center
Sun 03:45:37 PM 41.0200 -82.4206 339° North 458 527 27,000 -1,426 Descending Indianapolis Center
Sun 03:46:38 PM 41.1375 -82.4792 339° North 448 516 25,000 -2,244 Descending Indianapolis Center
Sun 03:47:40 PM 41.2494 -82.5358 339° North 430 495 22,400 -2,488 Descending Indianapolis Center
Sun 03:48:41 PM 41.3578 -82.5897 340° North 415 478 19,900 -2,508 Descending Indianapolis Center
Sun 03:49:42 PM 41.4617 -82.6431 339° North 400 460 17,300 -2,443 Descending Indianapolis Center
Sun 03:51:01 PM 41.5983 -82.7156 338° Northwest 373 429 14,200 -2,092 Descending Cleveland Center
Sun 03:52:14 PM 41.7139 -82.7750 339° North 365 420 12,000 -1,082 Descending Cleveland Center
Sun 03:53:03 PM 41.7772 -82.8442 321° Northwest 365 420 12,000  Level Cleveland Center
Sun 03:54:10 PM 41.8625 -82.9475 318° Northwest 361 415 12,000  Level Cleveland Center
Sun 03:55:11 PM 41.9400 -83.0369 319° Northwest 359 413 12,000  Level Cleveland Center
Sun 03:56:12 PM 42.0050 -83.1150 318° Northwest 297 342 12,000  Level Cleveland Center
Sun 03:57:04 PM 42.0536 -83.1728 319° Northwest 311 358 12,000 -432 Level Cleveland Center
Sun 03:58:03 PM 42.1133 -83.2144 333° Northwest 252 290 11,200 -1,008 Descending Cleveland Center
Sun 03:59:03 PM 42.1800 -83.2058 North 231 266 10,000 -1,338 Descending Cleveland Center
Sun 04:00:22 PM 42.2644 -83.1589 22° Northeast 247 284 8,100 -822 Descending Cleveland Center
Sun 04:01:29 PM 42.3281 -83.1164 26° Northeast 226 260 8,000 -52 Descending Cleveland Center
Sun 04:02:18 PM 42.3767 -83.0847 26° Northeast 228 262 8,000  Level Cleveland Center
Sun 04:03:20 PM 42.4339 -83.0475 26° Northeast 228 262 8,000 -279 Level Cleveland Center
Sun 04:04:27 PM 42.4967 -83.0275 13° North 212 244 7,400 -492 Descending Cleveland Center
Sun 04:05:22 PM 42.5142 -83.0931 290° West 197 227 7,000 -569 Descending Cleveland Center
Sun 04:06:23 PM 42.4797 -83.1422 226° Southwest 179 206 6,300 -738 Descending Cleveland Center
Sun 04:07:24 PM 42.4331 -83.1769 209° Southwest 181 208 5,500 -738 Descending Cleveland Center
Sun 04:08:25 PM 42.3906 -83.2119 211° Southwest 178 205 4,800 -885 Descending Cleveland Center
Sun 04:09:26 PM 42.3461 -83.2408 206° Southwest 173 199 3,700 -1,122 Descending Cleveland Center
Sun 04:10:28 PM 42.3036 -83.2756 211° Southwest 171 197 2,500 -976 Descending Cleveland Center
Sun 04:11:29 PM 42.2675 -83.3022 209° Southwest 151 174 1,700 -787 Descending Cleveland Center
Sun 04:12:30 PM 42.2272 -83.3286 206° Southwest 154 177 900 -787 Descending Cleveland Center

Login

Don't have an account? Register now (free) for customized features, flight alerts, and more!